Terminal Aerodrome Forecast
Issued by NWS Jackson, KY

Home | Current Version | Previous Version | Text Only | Print | Product List | Glossary On
Versions: 1 2 3 4 5 6 7 8 9 10 11 12 13 14 15 16 17 18 19 20 21 22 23 24 25 26
685
FTUS43 KJKL 090429 AAA
TAFJKL
TAF AMD
KJKL 090429Z 0904/0924 29006G18KT 1 1/2SM -SN FEW010 BKN016 OVC040=

USA.gov is the U.S. government's official web portal to all federal, state and local government web resources and services.